sensor_id;sensor_type;location;lat;lon;timestamp;P1;durP1;ratioP1;P2;durP2;ratioP2
55288;SDS011;41154;45.394;5.734;2023-03-09T00:02:14;13.63;;;6.07;;
55288;SDS011;41154;45.394;5.734;2023-03-09T00:04:40;11.15;;;6.07;;
55288;SDS011;41154;45.394;5.734;2023-03-09T00:07:06;10.98;;;6.43;;
55288;SDS011;41154;45.394;5.734;2023-03-09T00:09:31;12.43;;;6.00;;
55288;SDS011;41154;45.394;5.734;2023-03-09T00:11:57;11.93;;;6.22;;
55288;SDS011;41154;45.394;5.734;2023-03-09T00:14:23;14.82;;;6.18;;
55288;SDS011;41154;45.394;5.734;2023-03-09T00:16:49;9.18;;;5.72;;
55288;SDS011;41154;45.394;5.734;2023-03-09T00:19:16;10.70;;;5.65;;
55288;SDS011;41154;45.394;5.734;2023-03-09T00:21:54;11.35;;;6.40;;
55288;SDS011;41154;45.394;5.734;2023-03-09T00:24:22;17.83;;;5.88;;
55288;SDS011;41154;45.394;5.734;2023-03-09T00:26:59;9.02;;;5.80;;
55288;SDS011;41154;45.394;5.734;2023-03-09T00:29:27;12.27;;;6.25;;
55288;SDS011;41154;45.394;5.734;2023-03-09T00:31:55;10.57;;;6.22;;
55288;SDS011;41154;45.394;5.734;2023-03-09T00:34:22;16.08;;;8.23;;
55288;SDS011;41154;45.394;5.734;2023-03-09T00:36:48;12.07;;;6.50;;
55288;SDS011;41154;45.394;5.734;2023-03-09T00:39:15;14.43;;;7.72;;
55288;SDS011;41154;45.394;5.734;2023-03-09T00:41:41;12.55;;;6.88;;
55288;SDS011;41154;45.394;5.734;2023-03-09T00:44:08;11.93;;;6.72;;
55288;SDS011;41154;45.394;5.734;2023-03-09T00:46:36;12.00;;;6.63;;
55288;SDS011;41154;45.394;5.734;2023-03-09T00:49:02;12.60;;;6.53;;
55288;SDS011;41154;45.394;5.734;2023-03-09T00:51:33;11.65;;;6.03;;
55288;SDS011;41154;45.394;5.734;2023-03-09T00:54:01;10.48;;;6.32;;
55288;SDS011;41154;45.394;5.734;2023-03-09T00:56:27;14.63;;;6.72;;
55288;SDS011;41154;45.394;5.734;2023-03-09T00:58:55;13.38;;;5.72;;
55288;SDS011;41154;45.394;5.734;2023-03-09T01:01:22;11.93;;;6.15;;
55288;SDS011;41154;45.394;5.734;2023-03-09T01:03:49;11.60;;;6.28;;
55288;SDS011;41154;45.394;5.734;2023-03-09T01:06:19;16.55;;;6.13;;
55288;SDS011;41154;45.394;5.734;2023-03-09T01:08:50;14.25;;;7.30;;
55288;SDS011;41154;45.394;5.734;2023-03-09T01:11:23;17.17;;;8.77;;
55288;SDS011;41154;45.394;5.734;2023-03-09T01:13:51;16.20;;;5.75;;
55288;SDS011;41154;45.394;5.734;2023-03-09T01:16:19;14.88;;;6.25;;
55288;SDS011;41154;45.394;5.734;2023-03-09T01:18:46;15.02;;;6.95;;
55288;SDS011;41154;45.394;5.734;2023-03-09T01:21:12;13.15;;;6.75;;
55288;SDS011;41154;45.394;5.734;2023-03-09T01:23:38;10.55;;;6.50;;
55288;SDS011;41154;45.394;5.734;2023-03-09T01:26:05;11.13;;;6.28;;
55288;SDS011;41154;45.394;5.734;2023-03-09T01:28:35;17.85;;;6.05;;
55288;SDS011;41154;45.394;5.734;2023-03-09T01:31:06;12.02;;;6.65;;
55288;SDS011;41154;45.394;5.734;2023-03-09T01:33:33;15.88;;;6.97;;
55288;SDS011;41154;45.394;5.734;2023-03-09T01:35:58;15.27;;;8.18;;
55288;SDS011;41154;45.394;5.734;2023-03-09T01:38:24;12.43;;;7.40;;
55288;SDS011;41154;45.394;5.734;2023-03-09T01:40:50;16.02;;;7.78;;
55288;SDS011;41154;45.394;5.734;2023-03-09T01:48:46;13.35;;;6.55;;
55288;SDS011;41154;45.394;5.734;2023-03-09T01:51:19;15.82;;;7.60;;
55288;SDS011;41154;45.394;5.734;2023-03-09T01:53:47;11.48;;;7.03;;
55288;SDS011;41154;45.394;5.734;2023-03-09T01:56:15;32.15;;;9.38;;
55288;SDS011;41154;45.394;5.734;2023-03-09T01:58:45;14.90;;;6.50;;
55288;SDS011;41154;45.394;5.734;2023-03-09T02:01:14;16.00;;;6.32;;
55288;SDS011;41154;45.394;5.734;2023-03-09T02:03:42;13.75;;;5.53;;
55288;SDS011;41154;45.394;5.734;2023-03-09T02:06:16;11.20;;;6.43;;
55288;SDS011;41154;45.394;5.734;2023-03-09T02:08:57;13.25;;;5.75;;
55288;SDS011;41154;45.394;5.734;2023-03-09T02:11:29;8.05;;;4.93;;
55288;SDS011;41154;45.394;5.734;2023-03-09T02:13:56;8.77;;;5.18;;
55288;SDS011;41154;45.394;5.734;2023-03-09T02:16:23;8.50;;;4.80;;
55288;SDS011;41154;45.394;5.734;2023-03-09T02:18:49;9.55;;;5.65;;
55288;SDS011;41154;45.394;5.734;2023-03-09T02:26:42;14.23;;;4.60;;
55288;SDS011;41154;45.394;5.734;2023-03-09T02:29:17;7.88;;;4.43;;
55288;SDS011;41154;45.394;5.734;2023-03-09T02:31:43;7.15;;;4.40;;
55288;SDS011;41154;45.394;5.734;2023-03-09T02:34:09;11.05;;;4.47;;
55288;SDS011;41154;45.394;5.734;2023-03-09T02:36:38;7.95;;;4.53;;
55288;SDS011;41154;45.394;5.734;2023-03-09T02:42:12;7.97;;;4.20;;
55288;SDS011;41154;45.394;5.734;2023-03-09T02:44:38;9.38;;;4.72;;
55288;SDS011;41154;45.394;5.734;2023-03-09T02:47:13;9.43;;;4.65;;
55288;SDS011;41154;45.394;5.734;2023-03-09T02:49:46;5.78;;;4.18;;
55288;SDS011;41154;45.394;5.734;2023-03-09T02:52:12;8.55;;;4.15;;
55288;SDS011;41154;45.394;5.734;2023-03-09T02:54:38;9.98;;;5.07;;
55288;SDS011;41154;45.394;5.734;2023-03-09T02:57:04;10.38;;;4.90;;
55288;SDS011;41154;45.394;5.734;2023-03-09T02:59:30;8.07;;;4.78;;
55288;SDS011;41154;45.394;5.734;2023-03-09T03:01:56;14.65;;;6.75;;
55288;SDS011;41154;45.394;5.734;2023-03-09T03:04:23;11.45;;;5.97;;
55288;SDS011;41154;45.394;5.734;2023-03-09T03:06:51;7.28;;;5.10;;
55288;SDS011;41154;45.394;5.734;2023-03-09T03:09:18;8.80;;;4.85;;
55288;SDS011;41154;45.394;5.734;2023-03-09T03:11:43;6.88;;;4.57;;
55288;SDS011;41154;45.394;5.734;2023-03-09T03:14:09;9.82;;;5.05;;
55288;SDS011;41154;45.394;5.734;2023-03-09T03:16:35;7.63;;;4.55;;
55288;SDS011;41154;45.394;5.734;2023-03-09T03:19:02;7.97;;;4.45;;
55288;SDS011;41154;45.394;5.734;2023-03-09T03:21:31;8.15;;;4.72;;
55288;SDS011;41154;45.394;5.734;2023-03-09T03:23:59;10.38;;;3.30;;
55288;SDS011;41154;45.394;5.734;2023-03-09T03:26:27;5.35;;;3.72;;
55288;SDS011;41154;45.394;5.734;2023-03-09T03:29:01;9.38;;;4.80;;
55288;SDS011;41154;45.394;5.734;2023-03-09T03:31:28;8.52;;;4.78;;
55288;SDS011;41154;45.394;5.734;2023-03-09T03:33:56;8.60;;;4.65;;
55288;SDS011;41154;45.394;5.734;2023-03-09T03:36:24;9.68;;;5.30;;
55288;SDS011;41154;45.394;5.734;2023-03-09T03:38:50;11.63;;;5.80;;
55288;SDS011;41154;45.394;5.734;2023-03-09T03:41:16;8.90;;;5.45;;
55288;SDS011;41154;45.394;5.734;2023-03-09T03:43:46;6.80;;;4.22;;
55288;SDS011;41154;45.394;5.734;2023-03-09T03:46:14;8.07;;;5.30;;
55288;SDS011;41154;45.394;5.734;2023-03-09T03:48:40;10.25;;;5.05;;
55288;SDS011;41154;45.394;5.734;2023-03-09T03:51:09;7.80;;;4.65;;
55288;SDS011;41154;45.394;5.734;2023-03-09T03:53:36;9.20;;;5.13;;
55288;SDS011;41154;45.394;5.734;2023-03-09T03:56:02;8.02;;;4.35;;
55288;SDS011;41154;45.394;5.734;2023-03-09T03:58:29;14.73;;;6.32;;
55288;SDS011;41154;45.394;5.734;2023-03-09T04:05:51;10.40;;;6.40;;
55288;SDS011;41154;45.394;5.734;2023-03-09T04:08:18;9.68;;;5.72;;
55288;SDS011;41154;45.394;5.734;2023-03-09T04:10:46;8.48;;;4.95;;
55288;SDS011;41154;45.394;5.734;2023-03-09T04:13:12;12.15;;;5.43;;
55288;SDS011;41154;45.394;5.734;2023-03-09T04:15:40;11.23;;;5.47;;
55288;SDS011;41154;45.394;5.734;2023-03-09T04:18:06;9.82;;;5.05;;
55288;SDS011;41154;45.394;5.734;2023-03-09T04:20:33;10.32;;;5.47;;
55288;SDS011;41154;45.394;5.734;2023-03-09T04:23:01;8.00;;;5.35;;
55288;SDS011;41154;45.394;5.734;2023-03-09T04:25:29;9.23;;;5.45;;
55288;SDS011;41154;45.394;5.734;2023-03-09T04:27:55;6.00;;;4.47;;
55288;SDS011;41154;45.394;5.734;2023-03-09T04:32:59;6.93;;;4.07;;
55288;SDS011;41154;45.394;5.734;2023-03-09T04:35:24;11.52;;;4.97;;
55288;SDS011;41154;45.394;5.734;2023-03-09T04:37:52;8.95;;;4.53;;
55288;SDS011;41154;45.394;5.734;2023-03-09T04:40:18;9.13;;;5.35;;
55288;SDS011;41154;45.394;5.734;2023-03-09T04:42:45;6.43;;;4.45;;
55288;SDS011;41154;45.394;5.734;2023-03-09T04:45:11;7.38;;;4.25;;
55288;SDS011;41154;45.394;5.734;2023-03-09T04:47:40;7.57;;;4.53;;
55288;SDS011;41154;45.394;5.734;2023-03-09T04:50:06;9.63;;;3.45;;
55288;SDS011;41154;45.394;5.734;2023-03-09T04:52:38;10.20;;;4.53;;
55288;SDS011;41154;45.394;5.734;2023-03-09T04:55:04;8.15;;;4.55;;
55288;SDS011;41154;45.394;5.734;2023-03-09T04:57:31;11.45;;;5.07;;
55288;SDS011;41154;45.394;5.734;2023-03-09T04:59:57;7.88;;;4.22;;
55288;SDS011;41154;45.394;5.734;2023-03-09T05:02:26;6.53;;;4.13;;
55288;SDS011;41154;45.394;5.734;2023-03-09T05:04:54;10.38;;;5.30;;
55288;SDS011;41154;45.394;5.734;2023-03-09T05:07:20;6.50;;;4.18;;
55288;SDS011;41154;45.394;5.734;2023-03-09T05:09:46;14.27;;;5.00;;
55288;SDS011;41154;45.394;5.734;2023-03-09T05:12:13;8.63;;;4.78;;
55288;SDS011;41154;45.394;5.734;2023-03-09T05:14:41;11.65;;;5.93;;
55288;SDS011;41154;45.394;5.734;2023-03-09T05:17:06;10.18;;;5.53;;
55288;SDS011;41154;45.394;5.734;2023-03-09T05:19:32;9.65;;;4.95;;
55288;SDS011;41154;45.394;5.734;2023-03-09T05:22:02;10.27;;;4.80;;
55288;SDS011;41154;45.394;5.734;2023-03-09T05:24:30;12.48;;;4.20;;
55288;SDS011;41154;45.394;5.734;2023-03-09T05:26:56;7.18;;;3.88;;
55288;SDS011;41154;45.394;5.734;2023-03-09T05:29:26;10.38;;;4.53;;
55288;SDS011;41154;45.394;5.734;2023-03-09T05:31:52;6.47;;;3.95;;
55288;SDS011;41154;45.394;5.734;2023-03-09T05:34:18;4.97;;;3.33;;
55288;SDS011;41154;45.394;5.734;2023-03-09T05:36:44;6.60;;;4.10;;
55288;SDS011;41154;45.394;5.734;2023-03-09T05:39:16;6.57;;;4.28;;
55288;SDS011;41154;45.394;5.734;2023-03-09T05:41:42;9.63;;;4.90;;
55288;SDS011;41154;45.394;5.734;2023-03-09T05:44:16;5.88;;;4.10;;
55288;SDS011;41154;45.394;5.734;2023-03-09T05:46:42;6.90;;;3.85;;
55288;SDS011;41154;45.394;5.734;2023-03-09T05:49:08;8.60;;;3.55;;
55288;SDS011;41154;45.394;5.734;2023-03-09T05:51:34;3.75;;;2.63;;
55288;SDS011;41154;45.394;5.734;2023-03-09T05:54:01;5.60;;;3.00;;
55288;SDS011;41154;45.394;5.734;2023-03-09T05:56:29;4.97;;;3.03;;
55288;SDS011;41154;45.394;5.734;2023-03-09T05:58:59;8.00;;;4.22;;
55288;SDS011;41154;45.394;5.734;2023-03-09T06:01:27;8.98;;;5.82;;
55288;SDS011;41154;45.394;5.734;2023-03-09T06:04:02;7.95;;;4.57;;
55288;SDS011;41154;45.394;5.734;2023-03-09T06:06:29;7.60;;;4.15;;
55288;SDS011;41154;45.394;5.734;2023-03-09T06:08:59;7.72;;;4.18;;
55288;SDS011;41154;45.394;5.734;2023-03-09T06:11:25;7.30;;;4.25;;
55288;SDS011;41154;45.394;5.734;2023-03-09T06:13:54;5.38;;;3.67;;
55288;SDS011;41154;45.394;5.734;2023-03-09T06:16:23;5.50;;;4.00;;
55288;SDS011;41154;45.394;5.734;2023-03-09T06:18:51;11.32;;;5.60;;
55288;SDS011;41154;45.394;5.734;2023-03-09T06:21:16;9.90;;;4.50;;
55288;SDS011;41154;45.394;5.734;2023-03-09T06:23:43;5.13;;;3.22;;
55288;SDS011;41154;45.394;5.734;2023-03-09T06:26:11;5.38;;;3.53;;
55288;SDS011;41154;45.394;5.734;2023-03-09T06:28:41;4.22;;;2.30;;
55288;SDS011;41154;45.394;5.734;2023-03-09T06:31:12;8.27;;;5.28;;
55288;SDS011;41154;45.394;5.734;2023-03-09T06:33:42;23.13;;;12.88;;
55288;SDS011;41154;45.394;5.734;2023-03-09T06:36:09;16.95;;;9.70;;
55288;SDS011;41154;45.394;5.734;2023-03-09T06:38:38;7.78;;;4.13;;
55288;SDS011;41154;45.394;5.734;2023-03-09T06:41:05;4.20;;;2.70;;
55288;SDS011;41154;45.394;5.734;2023-03-09T06:43:30;4.68;;;2.97;;
55288;SDS011;41154;45.394;5.734;2023-03-09T06:45:56;8.60;;;4.35;;
55288;SDS011;41154;45.394;5.734;2023-03-09T06:48:23;6.03;;;3.78;;
55288;SDS011;41154;45.394;5.734;2023-03-09T06:50:57;6.07;;;4.10;;
55288;SDS011;41154;45.394;5.734;2023-03-09T06:53:23;5.15;;;3.67;;
55288;SDS011;41154;45.394;5.734;2023-03-09T06:55:54;5.95;;;4.00;;
55288;SDS011;41154;45.394;5.734;2023-03-09T06:58:25;8.73;;;4.07;;
55288;SDS011;41154;45.394;5.734;2023-03-09T07:00:50;7.32;;;3.88;;
55288;SDS011;41154;45.394;5.734;2023-03-09T07:03:17;7.80;;;4.43;;
55288;SDS011;41154;45.394;5.734;2023-03-09T07:05:44;18.20;;;7.63;;
55288;SDS011;41154;45.394;5.734;2023-03-09T07:08:10;9.10;;;5.28;;
55288;SDS011;41154;45.394;5.734;2023-03-09T07:10:36;4.93;;;3.35;;
55288;SDS011;41154;45.394;5.734;2023-03-09T07:13:01;9.27;;;5.55;;
55288;SDS011;41154;45.394;5.734;2023-03-09T07:15:27;10.10;;;5.15;;
55288;SDS011;41154;45.394;5.734;2023-03-09T07:17:54;6.55;;;3.45;;
55288;SDS011;41154;45.394;5.734;2023-03-09T07:20:20;9.73;;;4.70;;
55288;SDS011;41154;45.394;5.734;2023-03-09T07:22:48;7.22;;;3.95;;
55288;SDS011;41154;45.394;5.734;2023-03-09T07:25:14;7.72;;;4.50;;
55288;SDS011;41154;45.394;5.734;2023-03-09T07:27:42;9.88;;;4.40;;
55288;SDS011;41154;45.394;5.734;2023-03-09T07:30:08;11.07;;;5.57;;
55288;SDS011;41154;45.394;5.734;2023-03-09T07:32:36;12.88;;;5.70;;
55288;SDS011;41154;45.394;5.734;2023-03-09T07:35:01;7.55;;;4.80;;
55288;SDS011;41154;45.394;5.734;2023-03-09T07:37:27;7.78;;;4.32;;
55288;SDS011;41154;45.394;5.734;2023-03-09T07:39:54;12.20;;;4.28;;
55288;SDS011;41154;45.394;5.734;2023-03-09T07:42:20;4.53;;;3.25;;
55288;SDS011;41154;45.394;5.734;2023-03-09T07:45:02;7.13;;;4.07;;
55288;SDS011;41154;45.394;5.734;2023-03-09T07:47:28;5.60;;;3.92;;
55288;SDS011;41154;45.394;5.734;2023-03-09T07:49:57;5.90;;;4.07;;
55288;SDS011;41154;45.394;5.734;2023-03-09T07:52:23;6.60;;;4.20;;
55288;SDS011;41154;45.394;5.734;2023-03-09T07:57:34;4.28;;;3.25;;
55288;SDS011;41154;45.394;5.734;2023-03-09T08:00:00;4.50;;;3.03;;
55288;SDS011;41154;45.394;5.734;2023-03-09T08:02:36;3.28;;;2.50;;
55288;SDS011;41154;45.394;5.734;2023-03-09T08:05:04;5.18;;;2.53;;
55288;SDS011;41154;45.394;5.734;2023-03-09T08:07:31;3.42;;;3.00;;
55288;SDS011;41154;45.394;5.734;2023-03-09T08:09:58;6.63;;;4.30;;
55288;SDS011;41154;45.394;5.734;2023-03-09T08:12:24;5.97;;;4.50;;
55288;SDS011;41154;45.394;5.734;2023-03-09T08:14:50;8.30;;;3.65;;
55288;SDS011;41154;45.394;5.734;2023-03-09T08:17:16;5.88;;;3.50;;
55288;SDS011;41154;45.394;5.734;2023-03-09T08:19:41;6.35;;;3.95;;
55288;SDS011;41154;45.394;5.734;2023-03-09T08:22:07;5.28;;;3.22;;
55288;SDS011;41154;45.394;5.734;2023-03-09T08:24:33;5.35;;;3.63;;
55288;SDS011;41154;45.394;5.734;2023-03-09T08:26:59;5.47;;;3.55;;
55288;SDS011;41154;45.394;5.734;2023-03-09T08:29:24;5.97;;;3.90;;
55288;SDS011;41154;45.394;5.734;2023-03-09T08:31:50;6.40;;;4.57;;
55288;SDS011;41154;45.394;5.734;2023-03-09T08:34:17;7.85;;;4.60;;
55288;SDS011;41154;45.394;5.734;2023-03-09T08:36:45;7.57;;;4.20;;
55288;SDS011;41154;45.394;5.734;2023-03-09T08:39:11;6.57;;;3.92;;
55288;SDS011;41154;45.394;5.734;2023-03-09T08:41:37;3.92;;;2.70;;
55288;SDS011;41154;45.394;5.734;2023-03-09T08:44:03;3.30;;;2.20;;
55288;SDS011;41154;45.394;5.734;2023-03-09T08:46:28;5.70;;;2.65;;
55288;SDS011;41154;45.394;5.734;2023-03-09T08:48:54;6.75;;;3.60;;
55288;SDS011;41154;45.394;5.734;2023-03-09T08:51:21;5.80;;;3.00;;
55288;SDS011;41154;45.394;5.734;2023-03-09T08:53:47;4.78;;;2.70;;
55288;SDS011;41154;45.394;5.734;2023-03-09T08:56:14;4.55;;;2.40;;
55288;SDS011;41154;45.394;5.734;2023-03-09T08:58:40;6.32;;;2.42;;
55288;SDS011;41154;45.394;5.734;2023-03-09T09:01:08;3.40;;;2.22;;
55288;SDS011;41154;45.394;5.734;2023-03-09T09:03:34;2.60;;;1.60;;
55288;SDS011;41154;45.394;5.734;2023-03-09T09:06:07;3.78;;;1.55;;
55288;SDS011;41154;45.394;5.734;2023-03-09T09:08:35;2.00;;;1.60;;
55288;SDS011;41154;45.394;5.734;2023-03-09T09:11:07;2.83;;;1.70;;
55288;SDS011;41154;45.394;5.734;2023-03-09T09:13:37;2.78;;;1.98;;
55288;SDS011;41154;45.394;5.734;2023-03-09T09:16:04;4.60;;;2.53;;
55288;SDS011;41154;45.394;5.734;2023-03-09T09:18:34;4.60;;;2.42;;
55288;SDS011;41154;45.394;5.734;2023-03-09T09:21:04;3.75;;;2.53;;
55288;SDS011;41154;45.394;5.734;2023-03-09T09:23:42;4.83;;;2.53;;
55288;SDS011;41154;45.394;5.734;2023-03-09T09:26:09;4.72;;;2.30;;
55288;SDS011;41154;45.394;5.734;2023-03-09T09:28:39;5.88;;;2.45;;
55288;SDS011;41154;45.394;5.734;2023-03-09T09:31:05;5.85;;;2.88;;
55288;SDS011;41154;45.394;5.734;2023-03-09T09:33:35;6.18;;;2.88;;
55288;SDS011;41154;45.394;5.734;2023-03-09T09:36:03;6.03;;;3.20;;
55288;SDS011;41154;45.394;5.734;2023-03-09T09:38:34;5.60;;;2.70;;
55288;SDS011;41154;45.394;5.734;2023-03-09T09:43:53;4.18;;;2.75;;
55288;SDS011;41154;45.394;5.734;2023-03-09T09:46:25;8.13;;;2.20;;
55288;SDS011;41154;45.394;5.734;2023-03-09T09:48:53;3.28;;;1.83;;
55288;SDS011;41154;45.394;5.734;2023-03-09T09:56:50;4.30;;;1.63;;
55288;SDS011;41154;45.394;5.734;2023-03-09T10:07:17;2.03;;;1.33;;
55288;SDS011;41154;45.394;5.734;2023-03-09T10:09:46;2.63;;;1.45;;
55288;SDS011;41154;45.394;5.734;2023-03-09T10:12:34;9.55;;;2.00;;
55288;SDS011;41154;45.394;5.734;2023-03-09T10:15:00;3.45;;;2.03;;
55288;SDS011;41154;45.394;5.734;2023-03-09T10:17:48;3.35;;;1.95;;
55288;SDS011;41154;45.394;5.734;2023-03-09T10:22:52;4.85;;;1.80;;
55288;SDS011;41154;45.394;5.734;2023-03-09T10:25:21;3.20;;;2.03;;
55288;SDS011;41154;45.394;5.734;2023-03-09T10:27:58;2.83;;;1.75;;
55288;SDS011;41154;45.394;5.734;2023-03-09T10:38:23;4.25;;;1.92;;
55288;SDS011;41154;45.394;5.734;2023-03-09T10:40:50;2.20;;;1.52;;
55288;SDS011;41154;45.394;5.734;2023-03-09T10:45:49;4.60;;;2.10;;
55288;SDS011;41154;45.394;5.734;2023-03-09T10:50:55;3.08;;;1.90;;
55288;SDS011;41154;45.394;5.734;2023-03-09T10:53:43;4.00;;;2.08;;
55288;SDS011;41154;45.394;5.734;2023-03-09T10:56:20;4.05;;;2.42;;
55288;SDS011;41154;45.394;5.734;2023-03-09T11:01:43;3.03;;;1.40;;
55288;SDS011;41154;45.394;5.734;2023-03-09T11:06:55;2.40;;;1.17;;
55288;SDS011;41154;45.394;5.734;2023-03-09T11:09:32;2.08;;;1.20;;
55288;SDS011;41154;45.394;5.734;2023-03-09T11:12:09;4.93;;;1.60;;
55288;SDS011;41154;45.394;5.734;2023-03-09T11:17:49;2.40;;;1.80;;
55288;SDS011;41154;45.394;5.734;2023-03-09T11:22:38;3.15;;;1.65;;
55288;SDS011;41154;45.394;5.734;2023-03-09T11:25:13;3.33;;;1.45;;
55288;SDS011;41154;45.394;5.734;2023-03-09T11:27:49;3.63;;;2.17;;
55288;SDS011;41154;45.394;5.734;2023-03-09T11:30:21;2.92;;;1.77;;
55288;SDS011;41154;45.394;5.734;2023-03-09T11:32:51;2.47;;;1.60;;
55288;SDS011;41154;45.394;5.734;2023-03-09T11:35:18;2.40;;;1.58;;
55288;SDS011;41154;45.394;5.734;2023-03-09T11:38:00;2.53;;;1.73;;
55288;SDS011;41154;45.394;5.734;2023-03-09T11:40:36;2.55;;;1.65;;
55288;SDS011;41154;45.394;5.734;2023-03-09T11:43:21;3.10;;;1.75;;
55288;SDS011;41154;45.394;5.734;2023-03-09T11:45:54;2.90;;;1.52;;
55288;SDS011;41154;45.394;5.734;2023-03-09T11:48:32;5.38;;;1.85;;
55288;SDS011;41154;45.394;5.734;2023-03-09T11:53:34;2.80;;;1.83;;
55288;SDS011;41154;45.394;5.734;2023-03-09T11:58:39;2.80;;;1.60;;
55288;SDS011;41154;45.394;5.734;2023-03-09T12:04:02;3.55;;;1.90;;
55288;SDS011;41154;45.394;5.734;2023-03-09T12:09:02;3.22;;;1.80;;
55288;SDS011;41154;45.394;5.734;2023-03-09T12:11:34;8.30;;;2.10;;
55288;SDS011;41154;45.394;5.734;2023-03-09T12:16:48;2.03;;;1.45;;
55288;SDS011;41154;45.394;5.734;2023-03-09T12:19:19;4.70;;;1.45;;
55288;SDS011;41154;45.394;5.734;2023-03-09T12:21:59;7.80;;;2.35;;
55288;SDS011;41154;45.394;5.734;2023-03-09T12:24:32;5.40;;;2.10;;
55288;SDS011;41154;45.394;5.734;2023-03-09T12:27:04;4.13;;;2.83;;
55288;SDS011;41154;45.394;5.734;2023-03-09T12:29:39;5.43;;;2.47;;
55288;SDS011;41154;45.394;5.734;2023-03-09T12:32:18;2.90;;;2.30;;
55288;SDS011;41154;45.394;5.734;2023-03-09T12:34:45;3.78;;;2.10;;
55288;SDS011;41154;45.394;5.734;2023-03-09T12:38:13;4.53;;;2.00;;
55288;SDS011;41154;45.394;5.734;2023-03-09T12:42:49;4.85;;;2.53;;
55288;SDS011;41154;45.394;5.734;2023-03-09T13:03:52;5.00;;;2.08;;
55288;SDS011;41154;45.394;5.734;2023-03-09T13:06:35;3.03;;;1.95;;
55288;SDS011;41154;45.394;5.734;2023-03-09T13:09:18;7.82;;;2.33;;
55288;SDS011;41154;45.394;5.734;2023-03-09T13:16:52;3.35;;;1.80;;
55288;SDS011;41154;45.394;5.734;2023-03-09T13:29:49;1.95;;;1.50;;
55288;SDS011;41154;45.394;5.734;2023-03-09T13:38:23;3.90;;;1.60;;
55288;SDS011;41154;45.394;5.734;2023-03-09T13:40:55;4.25;;;1.10;;
55288;SDS011;41154;45.394;5.734;2023-03-09T13:43:24;3.95;;;1.00;;
55288;SDS011;41154;45.394;5.734;2023-03-09T13:45:54;2.40;;;1.05;;
55288;SDS011;41154;45.394;5.734;2023-03-09T13:48:23;1.58;;;0.80;;
55288;SDS011;41154;45.394;5.734;2023-03-09T13:50:49;3.03;;;0.73;;
55288;SDS011;41154;45.394;5.734;2023-03-09T13:55:53;3.03;;;0.60;;
55288;SDS011;41154;45.394;5.734;2023-03-09T13:58:23;1.85;;;0.70;;
55288;SDS011;41154;45.394;5.734;2023-03-09T14:00:59;2.40;;;0.80;;
55288;SDS011;41154;45.394;5.734;2023-03-09T14:03:31;2.45;;;0.68;;
55288;SDS011;41154;45.394;5.734;2023-03-09T14:06:05;1.75;;;0.70;;
55288;SDS011;41154;45.394;5.734;2023-03-09T14:08:35;2.38;;;0.75;;
55288;SDS011;41154;45.394;5.734;2023-03-09T14:11:07;2.88;;;1.00;;
55288;SDS011;41154;45.394;5.734;2023-03-09T14:13:49;3.72;;;1.20;;
55288;SDS011;41154;45.394;5.734;2023-03-09T14:16:26;1.63;;;1.05;;
55288;SDS011;41154;45.394;5.734;2023-03-09T14:18:54;2.35;;;1.02;;
55288;SDS011;41154;45.394;5.734;2023-03-09T14:21:31;1.27;;;0.73;;
55288;SDS011;41154;45.394;5.734;2023-03-09T14:26:39;1.27;;;0.63;;
55288;SDS011;41154;45.394;5.734;2023-03-09T14:31:42;3.55;;;1.00;;
55288;SDS011;41154;45.394;5.734;2023-03-09T14:36:50;4.53;;;1.00;;
55288;SDS011;41154;45.394;5.734;2023-03-09T14:39:26;2.67;;;0.70;;
55288;SDS011;41154;45.394;5.734;2023-03-09T14:42:01;1.23;;;0.70;;
55288;SDS011;41154;45.394;5.734;2023-03-09T14:44:36;3.78;;;0.73;;
55288;SDS011;41154;45.394;5.734;2023-03-09T14:47:14;2.83;;;0.70;;
55288;SDS011;41154;45.394;5.734;2023-03-09T14:49:41;3.17;;;1.30;;
55288;SDS011;41154;45.394;5.734;2023-03-09T14:52:21;3.35;;;0.80;;
55288;SDS011;41154;45.394;5.734;2023-03-09T14:54:52;2.22;;;0.77;;
55288;SDS011;41154;45.394;5.734;2023-03-09T14:57:18;1.30;;;0.82;;
55288;SDS011;41154;45.394;5.734;2023-03-09T14:59:44;0.50;;;0.30;;
55288;SDS011;41154;45.394;5.734;2023-03-09T15:02:14;3.45;;;0.60;;
55288;SDS011;41154;45.394;5.734;2023-03-09T15:04:40;3.92;;;0.77;;
55288;SDS011;41154;45.394;5.734;2023-03-09T15:07:09;1.50;;;0.50;;
55288;SDS011;41154;45.394;5.734;2023-03-09T15:09:40;2.25;;;0.50;;
55288;SDS011;41154;45.394;5.734;2023-03-09T15:12:09;1.10;;;0.50;;
55288;SDS011;41154;45.394;5.734;2023-03-09T15:14:38;2.50;;;0.82;;
55288;SDS011;41154;45.394;5.734;2023-03-09T15:17:06;1.90;;;0.60;;
55288;SDS011;41154;45.394;5.734;2023-03-09T15:19:32;0.70;;;0.50;;
55288;SDS011;41154;45.394;5.734;2023-03-09T15:21:59;3.85;;;0.60;;
55288;SDS011;41154;45.394;5.734;2023-03-09T15:24:26;2.08;;;0.50;;
55288;SDS011;41154;45.394;5.734;2023-03-09T15:26:55;2.35;;;0.50;;
55288;SDS011;41154;45.394;5.734;2023-03-09T15:29:22;1.42;;;0.63;;
55288;SDS011;41154;45.394;5.734;2023-03-09T15:31:50;3.40;;;0.90;;
55288;SDS011;41154;45.394;5.734;2023-03-09T15:34:16;1.15;;;0.50;;
55288;SDS011;41154;45.394;5.734;2023-03-09T15:36:42;1.38;;;0.50;;
55288;SDS011;41154;45.394;5.734;2023-03-09T15:39:08;2.15;;;0.50;;
55288;SDS011;41154;45.394;5.734;2023-03-09T15:41:34;0.85;;;0.40;;
55288;SDS011;41154;45.394;5.734;2023-03-09T15:43:59;1.02;;;0.40;;
55288;SDS011;41154;45.394;5.734;2023-03-09T15:46:25;2.53;;;0.60;;
55288;SDS011;41154;45.394;5.734;2023-03-09T15:48:51;1.52;;;0.47;;
55288;SDS011;41154;45.394;5.734;2023-03-09T15:51:18;2.83;;;0.38;;
55288;SDS011;41154;45.394;5.734;2023-03-09T15:53:45;1.30;;;0.60;;
55288;SDS011;41154;45.394;5.734;2023-03-09T15:56:11;2.38;;;0.60;;
55288;SDS011;41154;45.394;5.734;2023-03-09T15:58:38;2.00;;;0.70;;
55288;SDS011;41154;45.394;5.734;2023-03-09T16:01:05;0.77;;;0.40;;
55288;SDS011;41154;45.394;5.734;2023-03-09T16:03:34;0.70;;;0.45;;
55288;SDS011;41154;45.394;5.734;2023-03-09T16:06:00;0.85;;;0.32;;
55288;SDS011;41154;45.394;5.734;2023-03-09T16:08:26;1.77;;;0.80;;
55288;SDS011;41154;45.394;5.734;2023-03-09T16:10:54;2.75;;;1.00;;
55288;SDS011;41154;45.394;5.734;2023-03-09T16:13:20;1.20;;;0.68;;
55288;SDS011;41154;45.394;5.734;2023-03-09T16:15:46;1.67;;;0.60;;
55288;SDS011;41154;45.394;5.734;2023-03-09T16:18:16;2.38;;;0.68;;
55288;SDS011;41154;45.394;5.734;2023-03-09T16:20:42;2.20;;;0.70;;
55288;SDS011;41154;45.394;5.734;2023-03-09T16:23:08;2.40;;;0.90;;
55288;SDS011;41154;45.394;5.734;2023-03-09T16:25:34;3.45;;;1.48;;
55288;SDS011;41154;45.394;5.734;2023-03-09T16:28:00;5.95;;;1.60;;
55288;SDS011;41154;45.394;5.734;2023-03-09T16:30:27;4.65;;;1.50;;
55288;SDS011;41154;45.394;5.734;2023-03-09T16:32:53;5.13;;;1.30;;
55288;SDS011;41154;45.394;5.734;2023-03-09T16:35:21;5.30;;;1.95;;
55288;SDS011;41154;45.394;5.734;2023-03-09T16:37:48;5.93;;;2.08;;
55288;SDS011;41154;45.394;5.734;2023-03-09T16:40:14;5.05;;;1.70;;
55288;SDS011;41154;45.394;5.734;2023-03-09T16:42:40;8.38;;;1.65;;
55288;SDS011;41154;45.394;5.734;2023-03-09T16:45:07;5.30;;;1.70;;
55288;SDS011;41154;45.394;5.734;2023-03-09T16:47:36;4.22;;;1.45;;
55288;SDS011;41154;45.394;5.734;2023-03-09T16:50:03;4.90;;;1.30;;
55288;SDS011;41154;45.394;5.734;2023-03-09T16:52:30;4.15;;;1.38;;
55288;SDS011;41154;45.394;5.734;2023-03-09T16:54:59;5.93;;;1.52;;
55288;SDS011;41154;45.394;5.734;2023-03-09T16:57:29;4.72;;;1.35;;
55288;SDS011;41154;45.394;5.734;2023-03-09T16:59:55;2.80;;;1.17;;
55288;SDS011;41154;45.394;5.734;2023-03-09T17:02:23;9.20;;;1.60;;
55288;SDS011;41154;45.394;5.734;2023-03-09T17:04:50;2.80;;;1.05;;
55288;SDS011;41154;45.394;5.734;2023-03-09T17:07:17;2.78;;;0.85;;
55288;SDS011;41154;45.394;5.734;2023-03-09T17:09:43;1.83;;;0.90;;